Time;durP1;ratioP1;P1;durP2;ratioP2;P2;SDS_P1;SDS_P2;PMS_P1;PMS_P2;Temp;Humidity;BMP_temperature;BMP_pressure;BME280_temperature;BME280_humidity;BME280_pressure;Samples;Min_cycle;Max_cycle;Signal;HPM_P1;HPM_P2
2022/07/06 00:01:25;;;;;;;3.22;1.27;;;;;;;21.47;48.00;102535.59;5071696;28;20055;-70
2022/07/06 00:03:50;;;;;;;4.72;1.33;;;;;;;21.40;47.91;102525.94;5053370;28;20060;-70
2022/07/06 00:06:17;;;;;;;4.63;1.38;;;;;;;21.21;49.20;102530.91;5053811;28;20467;-70
2022/07/06 00:08:43;;;;;;;2.97;1.23;;;;;;;21.28;48.97;102520.63;5074428;28;20115;-69
2022/07/06 00:11:09;;;;;;;4.30;1.08;;;;;;;21.19;48.69;102522.13;5052591;28;20071;-71
2022/07/06 00:13:35;;;;;;;8.20;1.50;;;;;;;21.11;48.58;102521.75;5070886;28;20369;-69
2022/07/06 00:16:01;;;;;;;3.90;1.20;;;;;;;21.17;48.30;102529.75;5070960;28;20111;-68
2022/07/06 00:18:27;;;;;;;5.97;1.65;;;;;;;21.11;49.18;102528.03;5053134;28;20044;-69
2022/07/06 00:20:52;;;;;;;7.38;1.15;;;;;;;21.29;47.90;102527.72;5070756;28;20032;-70
2022/07/06 00:23:17;;;;;;;4.00;1.13;;;;;;;21.05;49.28;102536.44;5070391;28;20391;-71
2022/07/06 00:25:43;;;;;;;2.45;1.30;;;;;;;21.24;48.24;102527.66;5070714;28;20087;-71
2022/07/06 00:28:08;;;;;;;4.60;1.30;;;;;;;21.26;48.25;102532.88;5071102;28;20025;-70
2022/07/06 00:30:34;;;;;;;3.40;1.27;;;;;;;21.08;49.30;102528.56;5072712;28;20040;-70
2022/07/06 00:32:59;;;;;;;3.25;1.77;;;;;;;21.12;48.98;102529.72;5070449;28;20055;-69
2022/07/06 00:35:25;;;;;;;4.97;1.45;;;;;;;21.04;49.37;102529.31;5070985;28;20063;-70
2022/07/06 00:37:51;;;;;;;5.43;2.38;;;;;;;21.16;48.53;102519.91;5070302;28;20025;-68
2022/07/06 00:40:16;;;;;;;3.75;0.82;;;;;;;20.86;49.11;102528.50;5084198;28;20032;-71
2022/07/06 00:42:44;;;;;;;6.95;1.25;;;;;;;21.07;48.88;102532.34;5052948;28;20538;-72
2022/07/06 00:45:11;;;;;;;4.43;0.88;;;;;;;20.97;48.96;102526.75;5071428;28;20048;-70
2022/07/06 00:47:37;;;;;;;5.10;1.45;;;;;;;21.08;49.36;102530.47;5071159;28;20021;-69
2022/07/06 00:50:22;;;;;;;2.75;1.23;;;;;;;20.94;49.15;102536.28;5089276;28;20115;-69
2022/07/06 00:52:54;;;;;;;6.05;1.70;;;;;;;20.95;49.12;102529.72;5090854;28;20028;-69
2022/07/06 00:55:22;;;;;;;8.50;1.65;;;;;;;20.88;49.86;102534.56;5085501;28;20526;-68
2022/07/06 00:57:48;;;;;;;6.70;1.20;;;;;;;20.84;50.35;102532.56;5068986;28;20036;-71
2022/07/06 01:00:16;;;;;;;6.50;1.45;;;;;;;20.94;49.98;102530.81;5071641;28;20028;-69
2022/07/06 01:02:41;;;;;;;5.53;1.30;;;;;;;21.00;49.85;102535.28;5052984;28;20040;-72
2022/07/06 01:05:12;;;;;;;2.25;1.10;;;;;;;20.96;49.63;102534.13;5070990;28;20093;-71
2022/07/06 01:07:39;;;;;;;11.73;3.47;;;;;;;20.95;50.70;102540.66;5075658;28;20338;-70
2022/07/06 01:10:06;;;;;;;5.60;2.58;;;;;;;21.15;49.82;102531.91;5091408;28;20384;-68
2022/07/06 01:12:35;;;;;;;7.82;2.88;;;;;;;21.13;49.86;102539.53;5091515;28;20113;-69
2022/07/06 01:15:03;;;;;;;6.18;2.20;;;;;;;21.22;49.72;102539.94;5091001;28;20054;-70
2022/07/06 01:17:28;;;;;;;4.30;2.90;;;;;;;21.17;49.61;102537.97;5090847;28;20093;-70
2022/07/06 01:19:54;;;;;;;5.57;2.25;;;;;;;21.36;49.36;102539.31;5090880;28;20032;-70
2022/07/06 01:22:19;;;;;;;6.72;2.40;;;;;;;21.34;49.18;102543.38;5091208;28;20028;-70
2022/07/06 01:24:45;;;;;;;6.18;1.90;;;;;;;21.41;48.87;102539.34;5072818;28;20380;-70
2022/07/06 01:27:10;;;;;;;8.20;1.83;;;;;;;21.35;49.20;102537.66;5091684;28;20024;-70
2022/07/06 01:29:36;;;;;;;4.85;1.48;;;;;;;21.34;49.63;102536.00;5084680;28;20039;-69
2022/07/06 01:32:01;;;;;;;4.20;1.50;;;;;;;21.43;49.70;102529.00;5052823;28;20043;-70
2022/07/06 01:34:27;;;;;;;3.25;1.55;;;;;;;21.48;49.53;102525.50;5070767;28;20032;-70
2022/07/06 01:36:53;;;;;;;3.67;0.98;;;;;;;21.42;49.62;102524.63;5070739;28;20099;-71
2022/07/06 01:39:18;;;;;;;3.22;0.88;;;;;;;21.43;50.20;102523.50;5071187;28;20040;-70
2022/07/06 01:41:44;;;;;;;6.55;1.33;;;;;;;21.24;50.28;102526.84;5071195;28;20040;-70
2022/07/06 01:44:10;;;;;;;5.18;2.10;;;;;;;21.39;50.10;102518.81;5074376;28;20063;-69
2022/07/06 01:46:35;;;;;;;4.55;1.02;;;;;;;21.43;50.10;102531.72;5074085;28;20025;-69
2022/07/06 01:49:01;;;;;;;2.53;0.80;;;;;;;21.55;49.61;102520.63;5073957;28;20041;-69
2022/07/06 01:51:27;;;;;;;3.78;1.20;;;;;;;21.37;49.93;102512.75;5074347;28;20032;-68
2022/07/06 01:53:52;;;;;;;3.42;1.05;;;;;;;21.36;50.05;102522.91;5074071;28;20035;-70
2022/07/06 01:56:19;;;;;;;4.97;1.10;;;;;;;21.12;50.45;102520.66;5073796;28;20056;-69
2022/07/06 01:58:45;;;;;;;6.38;1.40;;;;;;;21.29;50.02;102521.41;5073616;28;20036;-70
2022/07/06 02:01:12;;;;;;;3.45;1.20;;;;;;;21.25;50.24;102520.28;5073645;28;20029;-69
2022/07/06 02:03:38;;;;;;;7.93;1.45;;;;;;;21.03;50.30;102514.00;5073728;28;20072;-67
2022/07/06 02:06:05;;;;;;;5.93;1.20;;;;;;;20.91;50.41;102514.91;5056038;28;20047;-69
2022/07/06 02:08:31;;;;;;;6.28;1.17;;;;;;;21.19;50.00;102521.31;5073357;28;20037;-69
2022/07/06 02:10:56;;;;;;;4.65;1.40;;;;;;;21.36;49.61;102522.06;5073653;28;20043;-69
2022/07/06 02:13:22;;;;;;;2.05;1.02;;;;;;;21.19;49.60;102513.91;5073798;28;20146;-69
2022/07/06 02:15:47;;;;;;;4.55;1.13;;;;;;;21.06;49.95;102514.31;5073658;28;20054;-69
2022/07/06 02:18:12;;;;;;;1.60;0.65;;;;;;;20.94;50.17;102511.69;5073795;28;20041;-69
2022/07/06 02:20:38;;;;;;;8.82;1.15;;;;;;;21.16;49.81;102508.16;5055592;28;20048;-69
2022/07/06 02:23:04;;;;;;;8.75;1.10;;;;;;;21.19;49.46;102511.19;5073229;28;20036;-68
2022/07/06 02:25:29;;;;;;;6.22;1.48;;;;;;;21.31;49.34;102511.88;5054718;28;20110;-69
2022/07/06 02:27:55;;;;;;;8.00;1.02;;;;;;;21.20;49.59;102510.13;5073353;28;20040;-69
2022/07/06 02:30:20;;;;;;;8.05;1.38;;;;;;;21.21;49.32;102505.50;5081853;28;20028;-68
2022/07/06 02:32:46;;;;;;;3.17;0.88;;;;;;;20.78;50.01;102503.50;5090729;28;20296;-70
2022/07/06 02:35:11;;;;;;;7.38;1.00;;;;;;;21.15;49.41;102510.03;5073054;28;20438;-68
2022/07/06 02:37:37;;;;;;;5.35;0.80;;;;;;;21.13;49.25;102504.00;5072639;28;20037;-70
2022/07/06 02:40:02;;;;;;;3.10;0.77;;;;;;;21.24;48.98;102510.44;5072965;28;20039;-69
2022/07/06 02:42:28;;;;;;;9.52;1.00;;;;;;;21.27;48.70;102508.00;5073326;28;20033;-69
2022/07/06 02:44:53;;;;;;;4.07;0.60;;;;;;;21.22;48.90;102507.13;5072923;28;20078;-69
2022/07/06 02:47:19;;;;;;;3.50;0.88;;;;;;;20.92;49.47;102519.31;5072967;28;20407;-68
2022/07/06 02:49:44;;;;;;;2.15;0.55;;;;;;;20.92;49.49;102518.47;5073168;28;20298;-68
2022/07/06 02:52:10;;;;;;;3.40;0.82;;;;;;;21.25;49.00;102518.38;5073277;28;20029;-69
2022/07/06 02:54:35;;;;;;;5.35;0.95;;;;;;;20.96;48.62;102522.34;5072961;28;20107;-69
2022/07/06 02:57:01;;;;;;;3.95;0.70;;;;;;;21.27;48.27;102516.22;5072639;28;20055;-69
2022/07/06 02:59:26;;;;;;;3.15;0.75;;;;;;;21.42;48.21;102510.94;5072835;28;20090;-69
2022/07/06 03:01:52;;;;;;;5.25;0.73;;;;;;;21.38;48.21;102509.78;5072678;28;20512;-63
2022/07/06 03:04:17;;;;;;;1.17;0.50;;;;;;;21.49;47.45;102517.03;5072258;28;20036;-63
2022/07/06 03:06:43;;;;;;;1.65;0.70;;;;;;;21.33;47.93;102515.19;5054699;28;20024;-63
2022/07/06 03:09:08;;;;;;;4.15;0.90;;;;;;;21.50;47.01;102524.13;5072736;28;20487;-63
2022/07/06 03:11:36;;;;;;;7.10;0.80;;;;;;;21.50;46.97;102513.19;5071880;28;20052;-64
2022/07/06 03:14:05;;;;;;;5.43;0.88;;;;;;;21.36;47.70;102514.69;5071909;28;20038;-62
2022/07/06 03:16:31;;;;;;;5.47;0.82;;;;;;;21.42;47.75;102521.88;5053840;28;20029;-64
2022/07/06 03:18:56;;;;;;;2.78;1.13;;;;;;;21.54;47.32;102527.19;5072240;28;20379;-64
2022/07/06 03:21:23;;;;;;;3.08;0.98;;;;;;;21.16;47.87;102519.09;5053910;28;20460;-63
2022/07/06 03:23:48;;;;;;;5.05;1.73;;;;;;;21.23;47.38;102523.28;5072246;28;20060;-65
2022/07/06 03:26:13;;;;;;;11.02;1.27;;;;;;;21.39;46.76;102513.34;5071640;28;20041;-62
2022/07/06 03:28:39;;;;;;;2.38;0.60;;;;;;;21.09;47.34;102524.72;5071604;28;20028;-63
2022/07/06 03:31:04;;;;;;;2.13;0.73;;;;;;;21.09;47.28;102532.13;5090233;28;20452;-63
2022/07/06 03:33:29;;;;;;;2.13;1.05;;;;;;;21.21;47.22;102532.84;5073679;28;20082;-63
2022/07/06 03:35:55;;;;;;;3.92;0.90;;;;;;;21.12;47.67;102537.91;5091642;28;20392;-64
2022/07/06 03:38:20;;;;;;;8.55;0.70;;;;;;;21.07;47.41;102528.81;5072762;28;20134;-64
2022/07/06 03:40:46;;;;;;;4.38;0.70;;;;;;;21.44;46.83;102530.66;5080785;28;20495;-62
2022/07/06 03:43:11;;;;;;;4.07;1.55;;;;;;;21.18;47.91;102531.44;5071428;28;20035;-63
2022/07/06 03:45:37;;;;;;;3.83;0.88;;;;;;;20.90;48.63;102532.41;5072154;28;20033;-64
2022/07/06 03:48:02;;;;;;;3.47;1.00;;;;;;;21.08;48.27;102534.03;5071503;28;20090;-63
2022/07/06 03:50:28;;;;;;;4.68;1.30;;;;;;;21.21;48.53;102535.56;5071181;28;20530;-64
2022/07/06 03:52:53;;;;;;;4.95;0.70;;;;;;;20.32;50.68;102540.28;5071194;28;20044;-62
2022/07/06 03:55:18;;;;;;;2.05;1.20;;;;;;;20.01;51.55;102543.50;5071393;28;20078;-64
2022/07/06 03:57:44;;;;;;;3.58;0.77;;;;;;;20.64;49.96;102535.00;5071735;28;20025;-63
2022/07/06 04:00:10;;;;;;;5.82;1.02;;;;;;;20.12;51.36;102540.72;5071579;28;20032;-62
2022/07/06 04:02:35;;;;;;;4.22;1.00;;;;;;;19.92;51.88;102537.63;5069128;28;20638;-64
2022/07/06 04:05:02;;;;;;;3.03;0.88;;;;;;;20.42;50.56;102536.88;5070153;28;20028;-64
2022/07/06 04:07:28;;;;;;;6.15;1.92;;;;;;;20.69;50.09;102535.94;5056950;28;20040;-62
2022/07/06 04:09:53;;;;;;;6.45;0.80;;;;;;;20.54;50.66;102534.88;5070742;28;20369;-63
2022/07/06 04:12:19;;;;;;;4.97;0.77;;;;;;;20.89;49.18;102528.00;5071172;28;20098;-64
2022/07/06 04:14:44;;;;;;;2.80;0.82;;;;;;;20.96;49.92;102525.09;5070747;28;20060;-64
2022/07/06 04:19:53;;;;;;;3.70;1.35;;;;;;;20.75;50.05;102528.63;5070845;28;20048;-65
2022/07/06 04:22:18;;;;;;;2.65;1.13;;;;;;;21.05;49.45;102528.25;5068692;28;20450;-63
2022/07/06 04:24:44;;;;;;;5.75;2.42;;;;;;;21.04;49.31;102529.31;5070679;28;20043;-63
2022/07/06 04:27:09;;;;;;;3.13;1.10;;;;;;;20.89;49.90;102528.00;5070986;28;20044;-63
2022/07/06 04:29:35;;;;;;;3.40;0.98;;;;;;;20.44;51.07;102527.31;5070604;28;20063;-62
2022/07/06 04:32:01;;;;;;;7.32;0.93;;;;;;;20.56;51.16;102532.72;5070532;28;20040;-63
2022/07/06 04:34:26;;;;;;;1.60;0.75;;;;;;;20.56;51.21;102538.19;5070568;28;20033;-63
2022/07/06 04:36:52;;;;;;;2.70;1.20;;;;;;;20.30;51.71;102538.84;5070372;28;20055;-63
2022/07/06 04:39:17;;;;;;;15.60;1.27;;;;;;;20.32;51.85;102537.53;5071114;28;20043;-63
2022/07/06 04:41:43;;;;;;;2.25;0.70;;;;;;;20.73;50.72;102537.09;5089450;28;20040;-64
2022/07/06 04:44:08;;;;;;;2.58;0.82;;;;;;;20.74;50.53;102537.88;5072577;28;20123;-65
2022/07/06 04:46:34;;;;;;;1.98;0.85;;;;;;;21.09;49.82;102537.59;5090987;28;20032;-63
2022/07/06 04:48:59;;;;;;;6.88;1.48;;;;;;;21.16;49.86;102543.69;5091121;28;20043;-63
2022/07/06 04:51:25;;;;;;;5.78;1.92;;;;;;;21.16;49.44;102540.97;5091406;28;20016;-64
2022/07/06 04:53:50;;;;;;;2.15;1.30;;;;;;;21.21;49.23;102541.84;5090737;28;20040;-63
2022/07/06 04:56:16;;;;;;;2.95;0.93;;;;;;;21.20;49.48;102555.78;5072566;28;20036;-62
2022/07/06 04:58:41;;;;;;;1.67;1.00;;;;;;;21.30;49.66;102547.69;5090462;28;20039;-65
2022/07/06 05:01:07;;;;;;;2.95;0.93;;;;;;;21.26;49.62;102550.13;5090549;28;20039;-63
2022/07/06 05:03:36;;;;;;;3.65;0.90;;;;;;;21.51;48.79;102553.16;5089506;28;20491;-62
2022/07/06 05:06:05;;;;;;;6.40;1.42;;;;;;;21.30;49.24;102554.00;5070627;28;20032;-64
2022/07/06 05:08:30;;;;;;;3.08;1.05;;;;;;;21.45;49.20;102562.38;5052711;28;20413;-64
2022/07/06 05:10:55;;;;;;;2.03;0.80;;;;;;;21.54;48.40;102558.09;5070433;28;20404;-64
2022/07/06 05:13:21;;;;;;;3.65;1.10;;;;;;;21.58;48.97;102551.03;5070140;28;20039;-64
2022/07/06 05:15:46;;;;;;;2.75;0.82;;;;;;;21.64;48.54;102554.69;5077130;28;20472;-64
2022/07/06 05:18:11;;;;;;;3.22;0.90;;;;;;;21.61;48.52;102560.66;5085432;28;20032;-63
2022/07/06 05:20:37;;;;;;;7.15;0.90;;;;;;;21.39;49.00;102557.09;5073726;28;20040;-63
2022/07/06 05:23:02;;;;;;;4.38;1.10;;;;;;;21.13;49.78;102555.16;5073352;28;20036;-64
2022/07/06 05:25:28;;;;;;;6.70;1.10;;;;;;;21.15;50.01;102563.94;5055412;28;20111;-63
2022/07/06 05:27:53;;;;;;;6.45;1.80;;;;;;;21.56;49.11;102561.41;5072409;28;20024;-65
2022/07/06 05:30:19;;;;;;;5.80;1.33;;;;;;;21.57;48.88;102564.97;5073714;28;20017;-64
2022/07/06 05:32:44;;;;;;;5.88;1.33;;;;;;;21.52;49.29;102557.53;5073452;28;20067;-65
2022/07/06 05:35:09;;;;;;;2.25;0.90;;;;;;;21.63;49.12;102561.22;5073250;28;20399;-63
2022/07/06 05:37:35;;;;;;;6.85;1.38;;;;;;;21.84;48.39;102558.47;5072708;28;20036;-66
2022/07/06 05:40:00;;;;;;;6.88;1.90;;;;;;;21.98;47.83;102558.03;5075193;28;20048;-63
2022/07/06 05:42:26;;;;;;;4.35;0.98;;;;;;;21.94;47.89;102557.75;5072859;28;20048;-63
2022/07/06 05:44:55;;;;;;;2.83;0.98;;;;;;;21.71;48.55;102567.06;5072965;28;20184;-64
2022/07/06 05:50:14;;;;;;;2.45;0.68;;;;;;;22.26;47.18;102560.50;5070796;28;20159;-64
2022/07/06 05:52:45;;;;;;;3.10;0.90;;;;;;;22.16;47.33;102560.41;5070210;28;20031;-63
2022/07/06 05:55:11;;;;;;;4.03;1.35;;;;;;;22.35;47.04;102557.00;5072521;28;20036;-65
2022/07/06 05:57:38;;;;;;;5.95;2.33;;;;;;;22.58;46.74;102561.34;5072821;28;20392;-64
2022/07/06 06:00:05;;;;;;;3.13;0.90;;;;;;;22.63;46.42;102562.19;5071896;28;20044;-64
2022/07/06 06:02:38;;;;;;;9.70;2.08;;;;;;;22.76;46.40;102566.38;5072251;28;20031;-64
2022/07/06 06:05:05;;;;;;;4.25;1.00;;;;;;;22.82;45.96;102564.50;5073827;28;20032;-63
2022/07/06 06:07:33;;;;;;;7.03;1.25;;;;;;;22.68;46.06;102566.91;5072550;28;20025;-65
2022/07/06 06:09:58;;;;;;;3.05;0.77;;;;;;;22.75;45.65;102577.59;5072062;28;20048;-64
2022/07/06 06:12:23;;;;;;;3.25;0.70;;;;;;;22.35;45.90;102580.84;5072959;28;20474;-65
2022/07/06 06:14:49;;;;;;;3.70;0.63;;;;;;;22.23;45.57;102578.28;5071732;28;20047;-64
2022/07/06 06:17:14;;;;;;;2.70;0.60;;;;;;;22.67;45.52;102579.78;5072678;28;20043;-65
2022/07/06 06:19:40;;;;;;;2.85;0.60;;;;;;;22.73;45.98;102582.53;5072314;28;20526;-64
2022/07/06 06:22:06;;;;;;;4.70;0.80;;;;;;;22.74;45.23;102579.53;5060548;28;20041;-68
2022/07/06 06:24:32;;;;;;;3.05;0.93;;;;;;;22.61;45.95;102586.31;5053484;28;20029;-68
2022/07/06 06:26:59;;;;;;;4.70;0.70;;;;;;;22.57;46.47;102589.81;5065413;28;20093;-68
2022/07/06 06:29:24;;;;;;;3.45;0.82;;;;;;;22.83;45.48;102588.91;5071591;28;20056;-68
2022/07/06 06:31:50;;;;;;;2.85;1.00;;;;;;;22.84;45.56;102589.75;5072448;28;20395;-68
2022/07/06 06:34:15;;;;;;;1.27;0.57;;;;;;;22.90;45.81;102585.94;5072104;28;20119;-69
2022/07/06 06:36:40;;;;;;;8.75;2.35;;;;;;;22.20;46.54;102587.03;5072662;28;20025;-69
2022/07/06 06:39:06;;;;;;;4.03;0.80;;;;;;;22.44;46.35;102584.75;5076466;28;20085;-70
2022/07/06 06:41:31;;;;;;;2.85;0.75;;;;;;;22.65;45.64;102589.34;5092678;28;20032;-69
2022/07/06 06:43:56;;;;;;;4.70;1.10;;;;;;;22.47;46.25;102584.22;5092670;28;20040;-69
2022/07/06 06:46:22;;;;;;;4.13;1.17;;;;;;;22.39;45.67;102584.69;5070760;28;20032;-69
2022/07/06 06:48:47;;;;;;;4.20;1.25;;;;;;;22.56;45.29;102580.72;5072199;28;20480;-69
2022/07/06 06:51:13;;;;;;;2.78;1.25;;;;;;;22.30;45.33;102586.28;5072842;28;20028;-69
2022/07/06 06:53:38;;;;;;;4.43;1.02;;;;;;;22.21;45.36;102580.44;5086134;28;20499;-69
2022/07/06 06:56:03;;;;;;;3.60;0.82;;;;;;;22.37;45.00;102586.88;5089543;28;20048;-69
2022/07/06 06:58:29;;;;;;;4.90;0.95;;;;;;;22.87;44.47;102594.69;5073586;28;20078;-69
2022/07/06 07:00:55;;;;;;;2.92;1.27;;;;;;;22.27;44.49;102589.56;5071785;28;20086;-70
2022/07/06 07:03:20;;;;;;;4.43;0.77;;;;;;;22.40;44.22;102589.09;5072381;28;20028;-69
2022/07/06 07:05:45;;;;;;;4.63;0.68;;;;;;;22.45;44.50;102587.22;5071518;28;20024;-69
2022/07/06 07:08:11;;;;;;;4.70;1.25;;;;;;;22.68;43.14;102592.38;5073544;28;20036;-69
2022/07/06 07:10:36;;;;;;;3.63;0.90;;;;;;;23.13;41.66;102586.38;5068239;28;20406;-68
2022/07/06 07:13:02;;;;;;;5.45;0.95;;;;;;;22.94;42.61;102589.81;5071656;28;20036;-70
2022/07/06 07:15:27;;;;;;;4.50;0.82;;;;;;;22.54;43.94;102598.53;5084948;28;20487;-70
2022/07/06 07:17:52;;;;;;;8.20;0.63;;;;;;;21.88;44.62;102594.34;5092338;28;20032;-69
2022/07/06 07:20:18;;;;;;;2.28;0.60;;;;;;;22.90;42.24;102597.72;5092220;28;20040;-69
2022/07/06 07:22:43;;;;;;;3.08;0.65;;;;;;;22.27;43.62;102589.56;5092151;28;20122;-68
2022/07/06 07:25:09;;;;;;;3.08;0.52;;;;;;;22.57;41.84;102598.88;5092332;28;20499;-69
2022/07/06 07:27:34;;;;;;;3.28;0.70;;;;;;;22.55;42.46;102592.78;5092910;28;20031;-69
2022/07/06 07:29:59;;;;;;;1.60;0.32;;;;;;;22.55;42.58;102605.66;5078696;28;20041;-70
2022/07/06 07:32:25;;;;;;;3.78;0.50;;;;;;;22.08;40.89;102605.53;5071978;28;20040;-68
2022/07/06 07:34:50;;;;;;;3.40;0.73;;;;;;;21.85;40.75;102603.09;5053765;28;20028;-77
2022/07/06 07:37:16;;;;;;;2.08;0.45;;;;;;;22.57;38.98;102595.28;5071311;28;20041;-75
2022/07/06 07:39:42;;;;;;;1.08;0.43;;;;;;;22.17;39.37;102598.47;5070828;28;20040;-74
2022/07/06 07:42:07;;;;;;;2.00;0.40;;;;;;;22.58;38.15;102588.75;5072011;28;20020;-77
2022/07/06 07:44:32;;;;;;;1.05;0.30;;;;;;;22.14;39.95;102584.47;5053360;28;20071;-74
2022/07/06 07:46:58;;;;;;;3.13;0.47;;;;;;;22.74;39.65;102600.66;5053248;28;20033;-76
2022/07/06 07:49:23;;;;;;;4.70;0.40;;;;;;;22.35;40.36;102589.88;5071193;28;20450;-76
2022/07/06 07:51:49;;;;;;;1.33;0.50;;;;;;;23.29;38.66;102593.53;5071103;28;20024;-75
2022/07/06 07:54:14;;;;;;;3.15;0.65;;;;;;;23.05;38.70;102591.50;5071994;28;20059;-75
2022/07/06 07:56:43;;;;;;;2.67;0.88;;;;;;;23.22;37.61;102589.41;5070982;28;20036;-76
2022/07/06 07:59:09;;;;;;;2.33;0.47;;;;;;;23.11;38.24;102588.53;5071329;28;20448;-76
2022/07/06 08:01:34;;;;;;;1.80;0.40;;;;;;;23.51;37.22;102594.22;5071131;28;20453;-78
2022/07/06 08:04:00;;;;;;;2.13;0.30;;;;;;;22.75;39.37;102591.31;5077347;28;20043;-76
2022/07/06 08:06:25;;;;;;;4.80;0.93;;;;;;;23.50;38.29;102592.59;5087299;28;20021;-79
2022/07/06 08:08:51;;;;;;;4.32;0.50;;;;;;;22.84;40.50;102597.97;5071245;28;20029;-79
2022/07/06 08:11:16;;;;;;;2.00;0.30;;;;;;;23.09;39.97;102593.47;5071446;28;20040;-73
2022/07/06 08:13:42;;;;;;;5.18;0.52;;;;;;;23.26;39.86;102596.00;5070619;28;20123;-69
2022/07/06 08:16:09;;;;;;;2.75;0.25;;;;;;;23.10;40.29;102597.84;5052743;28;20028;-68
2022/07/06 08:18:35;;;;;;;3.10;0.50;;;;;;;22.86;41.27;102598.53;5071522;28;20033;-68
2022/07/06 08:21:01;;;;;;;3.28;0.55;;;;;;;22.71;41.16;102596.50;5067980;28;20047;-70
2022/07/06 08:23:26;;;;;;;2.80;0.50;;;;;;;23.35;40.12;102592.50;5050724;28;20102;-72
2022/07/06 08:25:52;;;;;;;3.28;0.60;;;;;;;23.10;39.83;102600.59;5050952;28;20025;-71
2022/07/06 08:28:17;;;;;;;2.75;0.50;;;;;;;22.52;41.11;102600.72;5033055;28;20048;-72
2022/07/06 08:30:43;;;;;;;2.53;0.65;;;;;;;22.59;40.67;102593.97;5050838;28;20033;-71
2022/07/06 08:33:08;;;;;;;7.80;1.90;;;;;;;21.77;43.58;102601.63;5061231;28;20502;-70
2022/07/06 08:35:34;;;;;;;5.20;0.40;;;;;;;22.77;41.84;102591.88;5071106;28;20093;-70
2022/07/06 08:37:59;;;;;;;3.17;0.45;;;;;;;23.01;40.99;102598.63;5070586;28;20033;-70
2022/07/06 08:40:29;;;;;;;0.80;0.30;;;;;;;23.14;39.66;102592.66;5070901;28;20495;-67
2022/07/06 08:42:56;;;;;;;2.55;0.40;;;;;;;23.05;39.21;102591.50;5071011;28;20035;-70
2022/07/06 08:45:22;;;;;;;4.38;0.40;;;;;;;23.38;39.36;102592.00;5071200;28;20046;-69
2022/07/06 08:47:49;;;;;;;8.23;0.75;;;;;;;23.70;38.00;102589.09;5070583;28;20123;-70
2022/07/06 08:50:16;;;;;;;6.82;1.67;;;;;;;22.51;40.25;102594.41;5070720;28;20041;-71
2022/07/06 08:52:42;;;;;;;2.17;0.60;;;;;;;23.68;37.91;102591.28;5074457;28;20404;-69
2022/07/06 08:55:10;;;;;;;4.28;0.80;;;;;;;23.63;38.07;102587.66;5074695;28;20052;-71
2022/07/06 08:57:36;;;;;;;3.53;0.45;;;;;;;23.25;39.10;102594.38;5084050;28;20017;-69
2022/07/06 09:00:01;;;;;;;5.80;0.50;;;;;;;23.56;38.79;102596.19;5075483;28;20051;-70
2022/07/06 09:02:27;;;;;;;1.80;0.50;;;;;;;23.44;40.00;102599.16;5073994;28;20028;-69
2022/07/06 09:04:57;;;;;;;1.42;0.38;;;;;;;24.02;37.88;102597.97;5074863;28;20036;-69
2022/07/06 09:07:24;;;;;;;2.92;0.45;;;;;;;23.98;38.58;102593.28;5065309;28;20464;-69
2022/07/06 09:09:51;;;;;;;3.95;0.57;;;;;;;23.30;39.26;102594.38;5065420;28;20401;-68
2022/07/06 09:12:16;;;;;;;2.92;0.40;;;;;;;22.95;39.82;102592.28;5074721;28;20072;-70
2022/07/06 09:14:42;;;;;;;1.10;0.38;;;;;;;22.89;39.74;102592.50;5076820;28;20036;-68
2022/07/06 09:17:07;;;;;;;4.15;0.88;;;;;;;22.93;39.69;102599.13;5074569;28;20040;-71
2022/07/06 09:19:34;;;;;;;2.53;0.47;;;;;;;22.77;39.92;102600.09;5073977;28;20044;-70
2022/07/06 09:22:02;;;;;;;2.30;0.65;;;;;;;22.84;39.57;102608.94;5073725;28;20029;-69
2022/07/06 09:24:27;;;;;;;6.05;1.30;;;;;;;22.75;39.79;102605.84;5073944;28;20032;-71
2022/07/06 09:26:57;;;;;;;3.30;0.60;;;;;;;23.26;39.50;102605.06;5070506;28;20024;-70
2022/07/06 09:29:33;;;;;;;3.00;0.88;;;;;;;22.98;39.20;102610.94;5075614;28;20040;-71
2022/07/06 09:32:01;;;;;;;2.90;0.32;;;;;;;23.24;38.49;102606.41;5071333;28;20509;-70
2022/07/06 09:34:54;;;;;;;1.23;0.32;;;;;;;23.67;38.20;102611.56;5073675;28;20110;-72
2022/07/06 09:37:23;;;;;;;1.70;0.35;;;;;;;23.96;37.44;102603.72;5067950;28;20599;-72
2022/07/06 09:39:48;;;;;;;1.52;0.43;;;;;;;24.63;37.13;102604.31;5073493;28;20032;-71
2022/07/06 09:42:14;;;;;;;1.35;0.40;;;;;;;25.24;36.30;102597.59;5071000;28;20016;-73
2022/07/06 09:44:40;;;;;;;4.72;0.98;;;;;;;25.22;35.43;102601.72;5087210;28;20085;-72
2022/07/06 09:47:08;;;;;;;1.38;0.40;;;;;;;25.71;34.83;102604.59;5084443;28;20036;-72
2022/07/06 09:49:34;;;;;;;3.17;0.43;;;;;;;23.71;36.26;102600.88;5072465;28;20029;-70
2022/07/06 09:52:02;;;;;;;3.92;0.75;;;;;;;23.59;37.03;102605.81;5093675;28;20476;-71
2022/07/06 09:54:28;;;;;;;3.33;0.40;;;;;;;24.33;36.86;102605.13;5094251;28;20036;-72
2022/07/06 09:56:55;;;;;;;4.47;0.70;;;;;;;24.05;36.58;102600.19;5074914;28;20047;-71
2022/07/06 09:59:23;;;;;;;2.08;0.40;;;;;;;24.08;35.68;102607.03;5084803;28;20115;-71
2022/07/06 10:01:54;;;;;;;1.50;0.77;;;;;;;24.14;36.63;102612.28;5072942;28;20033;-72
2022/07/06 10:04:20;;;;;;;1.67;0.50;;;;;;;23.68;36.08;102609.66;5080738;28;20194;-70
2022/07/06 10:06:47;;;;;;;1.42;0.30;;;;;;;25.24;34.20;102600.34;5082896;28;20020;-72
2022/07/06 10:09:13;;;;;;;3.17;0.43;;;;;;;25.64;32.43;102599.41;5070082;28;20036;-70
2022/07/06 10:11:42;;;;;;;4.38;0.35;;;;;;;26.28;31.36;102592.94;5066509;28;20032;-71
2022/07/06 10:14:08;;;;;;;4.43;0.32;;;;;;;25.52;31.58;102593.41;5069016;28;20048;-71
2022/07/06 10:16:37;;;;;;;1.88;0.30;;;;;;;26.79;31.63;102592.22;5069386;28;20037;-71
2022/07/06 10:19:05;;;;;;;4.85;0.60;;;;;;;26.84;31.31;102594.09;5067852;28;20400;-72
2022/07/06 10:21:31;;;;;;;1.92;0.20;;;;;;;25.78;32.09;102591.34;5067840;28;20020;-71
2022/07/06 10:23:59;;;;;;;8.32;1.30;;;;;;;24.41;34.41;102596.34;5069155;28;20040;-73
2022/07/06 10:26:25;;;;;;;1.55;0.47;;;;;;;24.78;34.02;102590.59;5068548;28;20040;-71
2022/07/06 10:28:52;;;;;;;2.45;0.40;;;;;;;25.04;33.02;102596.88;5068588;28;20044;-72
2022/07/06 10:31:19;;;;;;;4.47;0.43;;;;;;;25.52;32.56;102590.63;5068297;28;20032;-73
2022/07/06 10:33:49;;;;;;;8.00;0.63;;;;;;;24.98;34.38;102590.53;5067632;28;20970;-71
2022/07/06 10:36:15;;;;;;;;;;;;;;;25.30;33.93;102592.09;5067094;28;20468;-72
2022/07/06 10:38:40;;;;;;;1.60;0.47;;;;;;;24.87;33.58;102594.41;5068507;28;19970;-71
2022/07/06 10:41:09;;;;;;;4.05;0.50;;;;;;;25.57;33.55;102592.56;5079034;28;20082;-72
2022/07/06 10:43:45;;;;;;;1.45;0.40;;;;;;;25.34;33.20;102595.91;5055899;28;20048;-71
2022/07/06 10:46:16;;;;;;;2.25;0.40;;;;;;;24.83;34.04;102582.31;5066366;28;20123;-72
2022/07/06 10:48:43;;;;;;;1.73;0.40;;;;;;;25.06;34.17;102583.66;5068177;28;20150;-72
2022/07/06 10:51:11;;;;;;;1.00;0.50;;;;;;;25.67;33.59;102585.03;5069167;28;20036;-72
2022/07/06 10:53:39;;;;;;;3.67;0.50;;;;;;;25.45;33.78;102584.63;5068150;28;20077;-72
2022/07/06 10:56:10;;;;;;;3.90;1.23;;;;;;;24.92;34.92;102585.34;5071544;28;20705;-71
2022/07/06 10:58:45;;;;;;;1.33;0.32;;;;;;;25.73;33.16;102580.34;5068968;28;20048;-72
2022/07/06 11:01:12;;;;;;;3.15;0.40;;;;;;;25.91;32.20;102593.44;5072317;28;20064;-72
2022/07/06 11:03:44;;;;;;;1.27;0.35;;;;;;;25.83;33.68;102581.09;5078796;28;20025;-72
2022/07/06 11:06:09;;;;;;;3.75;0.50;;;;;;;25.39;33.18;102591.22;5085806;28;20411;-73
2022/07/06 11:08:49;;;;;;;2.28;0.40;;;;;;;24.80;34.54;102580.13;5068677;28;20071;-71
2022/07/06 11:11:25;;;;;;;5.30;0.60;;;;;;;23.98;36.37;102587.78;5068479;28;20040;-71
2022/07/06 11:13:54;;;;;;;2.00;0.40;;;;;;;24.50;35.31;102582.88;5068398;28;20403;-72
2022/07/06 11:16:21;;;;;;;1.52;0.30;;;;;;;25.22;34.84;102577.78;5080501;28;20055;-71
2022/07/06 11:19:01;;;;;;;0.82;0.30;;;;;;;25.27;33.12;102576.97;5084154;28;20108;-71
2022/07/06 11:21:36;;;;;;;1.80;0.38;;;;;;;25.25;33.45;102570.91;5066921;28;20041;-72
2022/07/06 11:24:04;;;;;;;2.08;0.40;;;;;;;26.04;32.25;102563.31;5066321;28;20037;-71
2022/07/06 11:26:30;;;;;;;1.52;0.32;;;;;;;26.38;32.14;102570.81;5066689;28;20131;-72